Latest Coastal Weather Observations for Smithton

IDT60701

Issued at 9:21 pm EDT Tuesday 27 January 2015 (issued every 10 minutes, with the page automatically refreshed every 10 minutes)

About coastal observations | Map of coastal stations | Coastal observations for TAS | Marine services | Other Formats
Station Details ID: 091292 Name: SMITHTON AERODROME Lat: -40.83 Lon: 145.08 Height: 7.5 m
Data from the previous 72 hours. | See also: Recent months at Smithton
Date/Time
EDT
Temp

°C
Wind Pressure Rain
since 9am
mm
Weather Cloud Vis
km
Sea
Height
m
Swell
Dir
 
Speed
knots
Gust
knots
hPa Trend Height
m
Period
s
Dir
27/09:00pm 14.0 SSW 13 16 1018.0 - 0.0 - - - - - - -
27/08:30pm 14.8 SSW 15 20 1017.8 - 0.0 - - - - - - -
27/08:00pm 15.9 SSW 16 21 1017.4 - 0.0 - - - - - - -
27/07:30pm 17.1 SSW 18 23 1017.0 - 0.0 - - - - - - -
27/07:00pm 17.9 SSW 17 22 1016.7 - 0.0 - - - - - - -
27/06:30pm 18.5 SSW 17 22 1016.4 - 0.0 - - - - - - -
27/06:00pm 18.8 SSW 17 22 1016.4 - 0.0 - - - - - - -
27/05:30pm 18.5 SSW 18 24 1016.6 - 0.0 - - - - - - -
27/05:00pm 19.0 SW 17 25 1016.2 - 0.0 - - - - - - -
27/04:30pm 20.0 SSW 15 20 1016.4 - 0.0 - - - - - - -
27/04:00pm 19.3 S 16 21 1016.7 - 0.0 - - - - - - -
27/03:30pm 20.0 SSW 15 20 1016.6 - 0.0 - - - - - - -
27/03:00pm 19.6 S 14 19 1016.7 - 0.0 - - - - - - -
27/02:30pm 19.1 SSW 15 19 1016.8 - 0.0 - - - - - - -
27/02:00pm 18.1 SSW 16 21 1017.1 - 0.0 - - - - - - -
27/01:30pm 19.0 S 11 15 1017.2 - 0.0 - - - - - - -
27/01:00pm 17.5 SW 13 17 1017.5 - 0.0 - - - - - - -
27/12:30pm 17.3 SW 16 21 1017.8 - 0.0 - - - - - - -
27/12:00pm 17.8 SSW 15 19 1017.8 - 0.0 - - - - - - -
27/11:30am 17.7 S 13 18 1018.0 - 0.0 - - - - - - -
27/11:00am 17.8 SW 17 22 1018.0 - 0.0 - - - - - - -
27/10:30am 15.6 SSW 15 20 1017.9 - 0.0 - - - - - - -
27/10:00am 16.3 S 15 19 1018.1 - 0.0 - - - - - - -
27/09:30am 15.4 S 12 18 1018.0 - 0.0 - - - - - - -
27/09:00am 14.2 SSW 12 15 1018.0 - 0.0 - - - - - - -
27/08:30am 12.3 SSW 8 10 1018.0 - 0.0 - - - - - - -
27/08:00am 9.9 S 7 9 1017.8 - 0.0 - - - - - - -
27/07:30am 7.4 S 6 7 1017.6 - 0.0 - - - - - - -
27/07:00am 4.9 S 6 6 1017.4 - 0.0 - - - - - - -
27/06:30am 3.3 S 7 8 1017.2 - 0.0 - - - - - - -
27/06:00am 3.2 S 7 7 1016.9 - 0.0 - - - - - - -
27/05:30am 2.8 S 6 6 1016.7 - 0.0 - - - - - - -
27/05:00am 3.0 S 6 7 1016.7 - 0.0 - - - - - - -
27/04:30am 3.6 S 5 6 1016.7 - 0.0 - - - - - - -
27/04:00am 4.1 S 5 6 1017.0 - 0.0 - - - - - - -
27/03:30am 4.0 S 5 6 1017.3 - 0.0 - - - - - - -
27/03:00am 4.2 S 5 6 1017.4 - 0.0 - - - - - - -
27/02:30am 4.8 S 6 6 1017.6 - 0.0 - - - - - - -
27/02:00am 5.8 S 5 5 1017.7 - 0.0 - - - - - - -
27/01:30am 6.2 SW 5 6 1017.8 - 0.0 - - - - - - -
27/01:00am 6.6 SW 4 5 1017.9 - 0.0 - - - - - - -
27/12:30am 7.0 SW 6 6 1018.0 - 0.0 - - - - - - -
27/12:00am 8.0 SW 4 5 1018.0 - 0.0 - - - - - - -
 
Date/Time
EDT
Temp

°C
Wind Pressure Rain
since 9am
mm
Weather Cloud Vis
km
Sea
Height
m
Swell
Dir
 
Speed
knots
Gust
knots
hPa Trend Height
m
Period
s
Dir
26/11:30pm 8.4 SW 3 4 1018.0 - 0.0 - - - - - - -
26/11:00pm 7.7 SW 5 5 1018.2 - 0.0 - - - - - - -
26/10:30pm 8.8 SW 5 6 1018.2 - 0.0 - - - - - - -
26/10:00pm 8.9 SW 5 5 1018.0 - 0.0 - - - - - - -
26/09:30pm 9.4 SW 6 7 1017.8 - 0.0 - - - - - - -
26/09:00pm 10.6 WSW 9 10 1017.4 - 0.0 - - - - - - -
26/08:30pm 12.5 SSW 9 12 1017.2 - 0.0 - - - - - - -
26/08:00pm 13.4 SSW 8 10 1016.8 - 0.0 - - - - - - -
26/07:30pm 13.7 SW 9 11 1016.5 - 0.0 - - - - - - -
26/07:00pm 15.9 SW 13 16 1016.2 - 0.0 - - - - - - -
26/06:30pm 17.1 SSW 13 21 1015.9 - 0.0 - - - - - - -
26/06:00pm 17.0 SW 15 21 1015.8 - 0.0 - - - - - - -
26/05:30pm 16.4 SSW 18 23 1015.8 - 0.0 - - - - - - -
26/05:00pm 18.0 SSW 15 21 1015.8 - 0.0 - - - - - - -
26/04:30pm 18.2 SW 16 22 1015.9 - 0.0 - - - - - - -
26/04:00pm 18.5 WSW 17 24 1015.9 - 0.0 - - - - - - -
26/03:30pm 18.3 SW 16 22 1016.0 - 0.0 - - - - - - -
26/03:00pm 17.6 WSW 15 21 1015.9 - 0.0 - - - - - - -
26/02:30pm 18.9 W 15 22 1015.7 - 0.0 - - - - - - -
26/02:00pm 17.5 SW 15 21 1016.0 - 0.0 - - - - - - -
26/01:30pm 17.3 SW 13 17 1016.2 - 0.0 - - - - - - -
26/01:00pm 17.0 SSW 12 17 1016.3 - 0.0 - - - - - - -
26/12:30pm 15.9 WSW 13 16 1016.4 - 0.0 - - - - - - -
26/12:00pm 15.6 WSW 15 21 1016.5 - 0.0 - - - - - - -
26/11:30am 15.4 WSW 14 18 1016.4 - 0.0 - - - - - - -
26/11:00am 16.3 WSW 11 18 1016.4 - 0.0 - - - - - - -
26/10:30am 14.5 SW 14 19 1016.3 - 0.0 - - - - - - -
26/10:00am 15.4 SSW 12 16 1015.8 - 0.0 - - - - - - -
26/09:30am 15.0 SW 12 16 1015.6 - 0.0 - - - - - - -
26/09:00am 13.7 SSW 7 10 1015.5 - 1.8 - - - - - - -
26/08:30am 12.2 SW 6 7 1015.3 - 1.8 - - - - - - -
26/08:00am 10.8 WSW 4 5 1015.0 - 1.8 - - - - - - -
26/07:30am 7.7 WSW 3 4 1014.7 - 1.8 - - - - - - -
26/07:00am 5.8 WSW 1 4 1014.0 - 1.8 - - - - - - -
26/06:30am 5.7 WSW 3 4 1013.7 - 1.8 - - - - - - -
26/06:00am 6.5 WSW 6 8 1013.1 - 1.8 - - - - - - -
26/05:30am 6.3 W 7 8 1012.7 - 1.8 - - - - - - -
26/05:00am 7.3 W 4 5 1012.3 - 1.8 - - - - - - -
26/04:30am 7.4 W 6 7 1011.9 - 1.8 - - - - - - -
26/04:00am 8.0 WSW 6 7 1011.5 - 1.8 - - - - - - -
26/03:30am 8.9 W 8 10 1011.5 - 1.8 - - - - - - -
26/03:00am 9.2 WSW 9 10 1011.3 - 1.8 - - - - - - -
26/02:30am 10.5 SW 13 18 1010.9 - 1.8 - - - - - - -
26/02:00am 8.8 W 8 11 1010.8 - 1.8 - - - - - - -
26/01:30am 8.0 WSW 4 5 1010.7 - 1.8 - - - - - - -
26/01:00am 7.3 WSW 5 6 1010.7 - 1.8 - - - - - - -
26/12:30am 7.9 W 7 8 1010.6 - 1.8 - - - - - - -
26/12:00am 9.2 W 7 9 1010.5 - 1.8 - - - - - - -
 
Date/Time
EDT
Temp

°C
Wind Pressure Rain
since 9am
mm
Weather Cloud Vis
km
Sea
Height
m
Swell
Dir
 
Speed
knots
Gust
knots
hPa Trend Height
m
Period
s
Dir
25/11:30pm 8.5 SSW 6 10 1010.7 - 1.8 - - - - - - -
25/11:00pm 8.7 WSW 7 9 1010.4 - 1.8 - - - - - - -
25/10:30pm 10.2 W 9 13 1010.1 - 1.8 - - - - - - -
25/10:00pm 9.9 W 8 13 1010.2 - 1.8 - - - - - - -
25/09:30pm 10.4 WSW 10 13 1009.5 - 1.8 - - - - - - -
25/09:00pm 11.3 WSW 11 16 1009.2 - 1.8 - - - - - - -
25/08:30pm 12.2 WSW 10 14 1008.8 - 1.8 - - - - - - -
25/08:00pm 12.7 WSW 14 19 1008.3 - 1.8 - - - - - - -
25/07:30pm 13.3 WSW 17 23 1007.8 - 1.8 - - - - - - -
25/07:00pm 13.7 W 19 27 1007.3 - 1.8 - - - - - - -
25/06:52pm 13.2 W 17 27 1007.2 - 1.8 - - - - - - -
25/06:30pm 13.4 WSW 17 23 1007.0 - 1.8 - - - - - - -
25/06:12pm 13.8 WSW 18 28 1006.7 - 1.8 - - - - - - -
25/06:00pm 14.9 WSW 20 27 1006.3 - 1.8 - - - - - - -
25/05:30pm 15.7 W 19 29 1006.1 - 1.8 - - - - - - -
25/05:00pm 16.2 WSW 22 32 1005.9 - 1.8 - - - - - - -
25/04:31pm 15.7 W 26 40 1005.5 - 1.8 - - - - - - -
25/04:30pm 16.1 W 25 33 1005.4 - 1.8 - - - - - - -
25/04:25pm 15.8 W 23 33 1005.4 - 1.8 - - - - - - -
25/04:00pm 14.9 W 19 27 1005.3 - 1.8 - - - - - - -
25/03:30pm 14.5 W 24 33 1005.2 - 1.8 - - - - - - -
25/03:00pm 16.3 W 21 32 1004.8 - 1.8 - - - - - - -
25/02:36pm 15.7 W 22 33 1004.7 - 1.8 - - - - - - -
25/02:30pm 16.1 W 23 30 1004.8 - 1.8 - - - - - - -
25/02:18pm 15.9 W 24 28 1004.8 - 1.8 - - - - - - -
25/02:00pm 15.0 WSW 20 27 1004.8 - 1.8 - - - - - - -
25/01:44pm 14.9 WSW 26 37 1004.9 - 1.8 - - - - - - -
25/01:31pm 16.3 W 24 34 1004.3 - 1.8 - - - - - - -
25/01:30pm 16.8 W 24 32 1004.3 - 1.8 - - - - - - -
25/01:15pm 16.1 W 22 32 1004.2 - 1.8 - - - - - - -
25/01:00pm 15.6 W 23 29 1004.1 - 1.8 - - - - - - -
25/12:53pm 15.6 W 24 29 1004.1 - 1.8 - - - - - - -
25/12:30pm 13.1 W 12 15 1004.1 - 1.8 - - - - - - -
25/12:05pm 14.8 WSW 15 26 1003.8 - 1.4 - - - - - - -
25/12:00pm 15.1 WSW 14 19 1003.6 - 1.4 - - - - - - -
25/11:34am 12.9 WSW 17 27 1003.8 - 1.0 - - - - - - -
25/11:30am 15.5 WSW 18 24 1003.5 - 0.2 - - - - - - -
25/11:20am 15.4 W 16 26 1003.4 - 0.2 - - - - - - -
25/11:00am 15.0 W 18 23 1003.5 - 0.2 - - - - - - -
25/10:30am 13.6 W 14 21 1003.4 - 0.2 - - - - - - -
25/10:12am 13.5 W 18 30 1003.3 - 0.0 - - - - - - -
25/10:00am 14.0 W 14 18 1003.1 - 0.0 - - - - - - -
25/09:30am 14.2 W 13 19 1003.1 - 0.0 - - - - - - -
25/09:00am 13.0 W 9 11 1002.8 - 3.4 - - - - - - -
25/08:30am 13.8 WSW 11 14 1002.7 - 3.2 - - - - - - -
25/08:00am 12.4 WSW 8 10 1002.3 - 3.2 - - - - - - -
25/07:30am 12.1 WSW 9 12 1002.1 - 3.2 - - - - - - -
25/07:00am 11.0 WSW 8 9 1001.6 - 3.2 - - - - - - -
25/06:30am 11.7 W 8 10 1001.3 - 3.2 - - - - - - -
25/06:00am 11.7 WSW 6 7 1000.5 - 3.2 - - - - - - -
25/05:30am 12.1 SW 8 11 1000.5 - 3.2 - - - - - - -
25/05:00am 12.2 SW 10 13 999.8 - 3.2 - - - - - - -
25/04:30am 12.6 SW 15 21 999.9 - 2.8 - - - - - - -
25/04:00am 12.8 WSW 11 16 1000.2 - 2.2 - - - - - - -
25/03:30am 13.2 WSW 6 8 1000.1 - 1.4 - - - - - - -
25/03:00am 13.3 SW 10 15 999.7 - 0.6 - - - - - - -
25/02:30am 13.9 WSW 7 10 999.7 - 0.2 - - - - - - -
25/02:00am 14.4 W 8 11 1000.2 - 0.0 - - - - - - -
25/01:30am 14.9 WNW 9 12 1000.6 - 0.0 - - - - - - -
25/01:00am 15.6 NW 12 16 1000.9 - 0.0 - - - - - - -
25/12:30am 16.3 N 11 16 1001.0 - 0.0 - - - - - - -
25/12:00am 15.8 N 9 13 1001.1 - 0.0 - - - - - - -
 
Date/Time
EDT
Temp

°C
Wind Pressure Rain
since 9am
mm
Weather Cloud Vis
km
Sea
Height
m
Swell
Dir
 
Speed
knots
Gust
knots
hPa Trend Height
m
Period
s
Dir
24/11:30pm 14.9 N 7 9 1001.7 - 0.0 - - - - - - -
24/11:00pm 15.5 N 6 7 1002.1 - 0.0 - - - - - - -
24/10:30pm 15.7 NNW 7 8 1002.5 - 0.0 - - - - - - -
24/10:00pm 15.0 N 6 8 1002.4 - 0.0 - - - - - - -
24/09:30pm 15.9 N 9 11 1002.2 - 0.0 - - - - - - -

Other Formats:

Comma delimited format used in spreadsheet applications
http://www.bom.gov.au/fwo/IDT60701/IDT60701.94953.axf

JavaScript Object Notation format (JSON) in row-major order
http://www.bom.gov.au/fwo/IDT60701/IDT60701.94953.json